Time;durP1;ratioP1;P1;durP2;ratioP2;P2;SDS_P1;SDS_P2;PMS_P1;PMS_P2;Temp;Humidity;BMP_temperature;BMP_pressure;BME280_temperature;BME280_humidity;BME280_pressure;Samples;Min_cycle;Max_cycle;Signal;HPM_P1;HPM_P2
2021/07/03 00:01:48;;;;;;;;;21.75;19.75;;;;;21.78;55.41;100532.72;5075235;28;45553;-63
2021/07/03 00:04:13;;;;;;;;;14.75;12.75;;;;;21.70;55.70;100531.56;5076331;27;45576;-61
2021/07/03 00:06:39;;;;;;;;;17.25;16.50;;;;;21.62;55.75;100544.75;5076501;28;45413;-60
2021/07/03 00:09:04;;;;;;;;;18.50;16.50;;;;;21.57;55.83;100546.97;5075916;28;59749;-62
2021/07/03 00:11:32;;;;;;;;;16.50;14.75;;;;;21.52;56.34;100542.00;5076533;28;45444;-61
2021/07/03 00:13:57;;;;;;;;;21.25;17.50;;;;;21.47;56.02;100549.59;5075457;28;67100;-61
2021/07/03 00:16:23;;;;;;;;;16.00;15.50;;;;;21.41;56.71;100548.31;5074969;28;45411;-62
2021/07/03 00:18:48;;;;;;;;;18.25;15.50;;;;;21.35;56.85;100538.16;5074155;28;63768;-62
2021/07/03 00:21:13;;;;;;;;;17.00;17.00;;;;;21.30;56.97;100530.50;5074596;28;51438;-63
2021/07/03 00:23:39;;;;;;;;;16.00;14.75;;;;;21.28;57.12;100537.81;5075149;28;68176;-62
2021/07/03 00:26:04;;;;;;;;;16.75;14.00;;;;;21.24;57.30;100538.25;5076035;27;45248;-60
2021/07/03 00:28:30;;;;;;;;;15.50;13.50;;;;;21.20;57.27;100534.97;5076173;28;45246;-60
2021/07/03 00:30:55;;;;;;;;;16.25;15.50;;;;;21.15;57.17;100531.84;5075937;28;51856;-60
2021/07/03 00:33:21;;;;;;;;;15.75;14.75;;;;;21.10;57.61;100534.91;5074653;28;48416;-60
2021/07/03 00:35:46;;;;;;;;;16.75;15.25;;;;;21.05;57.80;100529.09;5076257;28;45309;-60
2021/07/03 00:38:11;;;;;;;;;14.00;13.50;;;;;21.02;57.98;100527.53;5075717;28;47639;-62
2021/07/03 00:40:37;;;;;;;;;15.00;13.25;;;;;20.97;58.10;100534.25;5076115;28;45562;-61
2021/07/03 00:43:05;;;;;;;;;13.75;13.75;;;;;20.94;58.11;100537.19;5074484;28;47916;-62
2021/07/03 00:45:30;;;;;;;;;14.50;12.75;;;;;20.87;58.43;100535.03;5074340;28;45477;-61
2021/07/03 00:47:56;;;;;;;;;13.75;13.75;;;;;20.84;58.68;100537.13;5076303;28;45280;-62
2021/07/03 00:50:21;;;;;;;;;13.25;13.25;;;;;20.78;58.67;100537.63;5076250;28;45588;-60
2021/07/03 00:52:47;;;;;;;;;14.75;14.50;;;;;20.73;59.03;100535.31;5073969;28;69674;-60
2021/07/03 00:55:14;;;;;;;;;15.50;13.75;;;;;20.66;58.73;100528.81;5074327;28;47830;-61
2021/07/03 00:57:41;;;;;;;;;15.25;12.00;;;;;20.63;59.15;100531.72;5074721;28;45231;-60
2021/07/03 01:00:07;;;;;;;;;15.50;13.75;;;;;20.58;59.07;100532.97;5075790;27;45615;-60
2021/07/03 01:02:32;;;;;;;;;19.75;18.50;;;;;20.52;59.63;100512.09;5075275;27;45261;-60
2021/07/03 01:04:57;;;;;;;;;17.00;15.25;;;;;20.47;59.58;100514.31;5075961;28;45275;-61
2021/07/03 01:07:23;;;;;;;;;14.00;14.00;;;;;20.45;59.42;100518.94;5073242;28;49207;-62
2021/07/03 01:09:48;;;;;;;;;14.75;13.00;;;;;20.42;60.13;100520.03;5057742;28;45248;-59
2021/07/03 01:12:14;;;;;;;;;66.25;52.25;;;;;20.38;60.13;100523.09;5075444;28;46828;-60
2021/07/03 01:14:44;;;;;;;;;26.00;22.00;;;;;20.34;60.09;100514.47;5075430;28;45248;-59
2021/07/03 01:17:09;;;;;;;;;19.00;19.00;;;;;20.34;60.33;100511.81;5075586;27;45250;-60
2021/07/03 01:19:35;;;;;;;;;17.00;15.00;;;;;20.29;60.60;100508.66;5075734;27;45562;-61
2021/07/03 01:22:00;;;;;;;;;14.75;13.75;;;;;20.26;60.63;100507.13;5075210;27;52766;-60
2021/07/03 01:24:26;;;;;;;;;14.50;14.50;;;;;20.23;60.41;100504.69;5075957;27;45310;-60
2021/07/03 01:26:53;;;;;;;;;15.25;14.00;;;;;20.19;60.50;100499.72;5075503;28;48752;-59
2021/07/03 01:29:19;;;;;;;;;14.50;13.75;;;;;20.17;61.11;100499.00;5075766;27;45288;-60
2021/07/03 01:31:46;;;;;;;;;15.00;14.50;;;;;20.18;61.32;100493.53;5075076;27;45411;-61
2021/07/03 01:34:11;;;;;;;;;16.25;15.00;;;;;20.19;60.80;100500.59;5075534;27;45870;-60
2021/07/03 01:36:37;;;;;;;;;12.75;12.75;;;;;20.24;61.31;100494.84;5075511;28;45741;-60
2021/07/03 01:39:05;;;;;;;;;18.00;18.00;;;;;20.29;60.96;100496.16;5075784;28;45309;-61
2021/07/03 01:41:31;;;;;;;;;15.50;15.50;;;;;20.34;60.30;100490.44;5075534;27;45397;-60
2021/07/03 01:43:56;;;;;;;;;16.50;13.75;;;;;20.40;61.08;100491.75;5073859;28;45469;-59
2021/07/03 01:46:22;;;;;;;;;13.75;13.00;;;;;20.47;60.89;100492.94;5075432;28;45360;-59
2021/07/03 01:48:47;;;;;;;;;16.50;14.00;;;;;20.50;60.47;100489.16;5073860;28;51784;-60
2021/07/03 01:51:12;;;;;;;;;13.00;12.00;;;;;20.53;60.42;100489.75;5074598;28;64484;-63
2021/07/03 01:53:38;;;;;;;;;13.25;12.00;;;;;20.59;60.11;100493.72;5075004;28;53049;-61
2021/07/03 01:56:03;;;;;;;;;15.25;12.25;;;;;20.62;60.46;100490.78;5074611;28;62974;-60
2021/07/03 01:58:30;;;;;;;;;17.25;14.25;;;;;20.63;60.20;100488.97;5074224;28;45291;-61
2021/07/03 02:00:56;;;;;;;;;12.25;12.25;;;;;20.65;59.92;100487.03;5075215;27;45445;-61
2021/07/03 02:03:22;;;;;;;;;13.50;13.50;;;;;20.67;59.80;100491.25;5075032;27;45433;-61
2021/07/03 02:05:48;;;;;;;;;19.25;15.00;;;;;20.66;60.16;100478.03;5075167;27;45448;-62
2021/07/03 02:08:13;;;;;;;;;12.75;12.75;;;;;20.68;60.32;100479.59;5075440;28;45259;-61
2021/07/03 02:10:38;;;;;;;;;11.25;11.25;;;;;20.68;60.38;100476.94;5074453;28;62672;-61
2021/07/03 02:13:04;;;;;;;;;15.50;13.25;;;;;20.68;60.31;100482.28;5074658;28;52622;-60
2021/07/03 02:15:29;;;;;;;;;13.00;12.00;;;;;20.66;60.40;100475.34;5075205;28;47937;-61
2021/07/03 02:17:55;;;;;;;;;17.75;13.75;;;;;20.67;60.40;100482.41;5076104;27;45538;-60
2021/07/03 02:20:20;;;;;;;;;16.00;13.25;;;;;20.66;60.36;100492.22;5078388;28;46379;-59
2021/07/03 02:22:46;;;;;;;;;12.00;11.00;;;;;20.64;60.18;100480.81;5078057;27;51684;-62
2021/07/03 02:25:11;;;;;;;;;17.00;14.00;;;;;20.64;60.17;100488.00;5078594;28;45214;-61
2021/07/03 02:27:37;;;;;;;;;16.50;14.75;;;;;20.60;60.64;100490.06;5078548;28;45461;-61
2021/07/03 02:30:06;;;;;;;;;17.25;14.75;;;;;20.57;60.32;100484.97;5078103;28;64195;-62
2021/07/03 02:32:32;;;;;;;;;15.75;14.00;;;;;20.52;60.66;100490.72;5077457;28;45398;-62
2021/07/03 02:34:57;;;;;;;;;20.75;18.00;;;;;20.48;60.80;100485.75;5078418;28;45398;-62
2021/07/03 02:37:22;;;;;;;;;17.00;15.50;;;;;20.44;61.06;100482.50;5078090;28;50746;-62
2021/07/03 02:39:48;;;;;;;;;15.00;13.00;;;;;20.37;61.06;100478.66;5078135;28;45964;-61
2021/07/03 02:42:13;;;;;;;;;19.50;19.50;;;;;20.30;61.04;100478.31;5077596;28;54056;-62
2021/07/03 02:44:38;;;;;;;;;14.25;13.00;;;;;20.24;61.16;100479.69;5076051;28;64038;-62
2021/07/03 02:47:04;;;;;;;;;16.00;14.75;;;;;20.18;61.64;100480.19;5078106;28;56393;-60
2021/07/03 02:49:29;;;;;;;;;14.75;14.00;;;;;20.12;61.48;100476.19;5078075;28;46764;-61
2021/07/03 02:51:56;;;;;;;;;28.25;25.00;;;;;20.10;61.51;100478.13;5078250;28;45833;-60
2021/07/03 02:54:21;;;;;;;;;14.75;14.50;;;;;20.10;61.67;100477.28;5078110;28;45253;-60
2021/07/03 02:56:47;;;;;;;;;17.00;16.25;;;;;20.11;61.78;100474.50;5077987;28;45194;-60
2021/07/03 02:59:12;;;;;;;;;15.00;11.25;;;;;20.14;62.00;100478.72;5077808;28;45349;-60
2021/07/03 03:01:38;;;;;;;;;14.50;13.50;;;;;20.15;62.09;100477.78;5077182;27;60965;-59
2021/07/03 03:04:03;;;;;;;;;16.00;14.75;;;;;20.15;62.35;100477.78;5078247;28;45365;-62
2021/07/03 03:06:29;;;;;;;;;17.50;13.25;;;;;20.12;61.96;100478.00;5077732;28;48171;-60
2021/07/03 03:08:54;;;;;;;;;17.50;16.50;;;;;20.10;62.16;100480.81;5076338;28;47296;-61
2021/07/03 03:11:19;;;;;;;;;19.25;16.75;;;;;20.09;62.34;100476.44;5077427;28;47838;-62
2021/07/03 03:13:45;;;;;;;;;23.25;20.50;;;;;20.07;62.38;100478.41;5078045;28;45356;-62
2021/07/03 03:16:10;;;;;;;;;17.25;16.00;;;;;20.05;62.32;100474.13;5077958;28;45310;-62
2021/07/03 03:18:35;;;;;;;;;15.75;14.25;;;;;20.02;62.20;100474.38;5077969;28;45412;-61
2021/07/03 03:21:01;;;;;;;;;19.00;17.25;;;;;20.01;62.41;100473.56;5077060;28;57490;-62
2021/07/03 03:23:26;;;;;;;;;16.50;15.50;;;;;20.03;62.64;100468.94;5077465;28;45356;-60
2021/07/03 03:25:52;;;;;;;;;19.25;16.00;;;;;20.05;62.56;100471.47;5077749;28;45401;-61
2021/07/03 03:28:17;;;;;;;;;19.25;17.00;;;;;20.09;62.85;100475.59;5077284;27;46240;-60
2021/07/03 03:30:43;;;;;;;;;18.75;17.00;;;;;20.11;62.12;100469.16;5076207;28;59681;-61
2021/07/03 03:33:08;;;;;;;;;19.50;18.25;;;;;20.11;62.06;100462.94;5077427;27;45205;-59
2021/07/03 03:35:34;;;;;;;;;17.50;16.25;;;;;20.14;62.61;100460.03;5076716;28;45310;-60
2021/07/03 03:37:59;;;;;;;;;15.75;15.25;;;;;20.14;62.04;100452.00;5076334;28;74474;-61
2021/07/03 03:40:26;;;;;;;;;20.00;16.00;;;;;20.15;61.94;100464.44;5075312;28;60554;-59
2021/07/03 03:42:53;;;;;;;;;17.50;16.00;;;;;20.13;62.44;100461.00;5110176;27;45455;-59
2021/07/03 03:45:18;;;;;;;;;15.00;15.00;;;;;20.09;61.76;100455.09;5077394;27;45498;-58
2021/07/03 03:47:44;;;;;;;;;18.75;15.00;;;;;20.17;62.10;100461.63;5076401;28;63859;-59
2021/07/03 03:50:10;;;;;;;;;19.00;15.00;;;;;20.20;61.89;100462.22;5076527;28;64593;-60
2021/07/03 03:52:35;;;;;;;;;22.00;15.25;;;;;20.24;62.39;100469.00;5077608;28;45358;-61
2021/07/03 03:55:01;;;;;;;;;18.25;16.75;;;;;20.30;62.44;100470.28;5077140;27;45384;-60
2021/07/03 03:57:30;;;;;;;;;15.50;15.50;;;;;20.32;62.08;100476.34;5076754;28;46323;-62
2021/07/03 03:59:56;;;;;;;;;16.00;14.75;;;;;20.33;61.86;100475.38;5076990;27;45234;-62
2021/07/03 04:02:22;;;;;;;;;16.75;14.75;;;;;20.35;62.21;100478.78;5075598;28;45283;-62
2021/07/03 04:04:49;;;;;;;;;14.50;14.25;;;;;20.36;61.60;100484.97;5077118;28;45460;-62
2021/07/03 04:07:15;;;;;;;;;17.25;15.00;;;;;20.34;61.60;100479.75;5075403;28;48142;-62
2021/07/03 04:09:40;;;;;;;;;16.00;15.25;;;;;20.42;61.43;100495.16;5075000;28;55486;-61
2021/07/03 04:12:06;;;;;;;;;16.75;13.25;;;;;20.42;61.73;100485.28;5077349;28;45409;-62
2021/07/03 04:14:31;;;;;;;;;16.75;15.00;;;;;20.45;61.66;100492.22;5077095;27;45405;-61
2021/07/03 04:16:57;;;;;;;;;17.75;15.50;;;;;20.46;61.85;100487.72;5076308;28;46233;-60
2021/07/03 04:19:22;;;;;;;;;17.75;17.50;;;;;20.50;61.63;100489.16;5075914;28;62056;-60
2021/07/03 04:21:47;;;;;;;;;17.25;16.25;;;;;20.53;61.61;100489.75;5075340;28;45367;-60
2021/07/03 04:24:13;;;;;;;;;16.75;15.00;;;;;20.57;61.69;100491.19;5076283;28;53775;-61
2021/07/03 04:26:38;;;;;;;;;18.00;15.00;;;;;20.62;61.11;100489.94;5075931;27;63115;-62
2021/07/03 04:29:04;;;;;;;;;16.75;15.50;;;;;20.64;61.10;100491.50;5075179;28;46022;-61
2021/07/03 04:31:29;;;;;;;;;17.50;15.50;;;;;20.68;61.18;100492.09;5076445;28;45275;-62
2021/07/03 04:33:55;;;;;;;;;13.75;13.75;;;;;20.73;60.99;100500.59;5076092;28;48377;-61
2021/07/03 04:36:20;;;;;;;;;18.00;14.00;;;;;20.77;60.87;100491.31;5075705;28;63076;-61
2021/07/03 04:38:45;;;;;;;;;19.25;15.25;;;;;20.82;61.21;100491.81;5075852;28;50925;-62
2021/07/03 04:41:11;;;;;;;;;16.50;14.75;;;;;20.90;60.86;100496.50;5075097;27;55357;-60
2021/07/03 04:43:36;;;;;;;;;18.50;14.50;;;;;20.96;60.56;100501.34;5076666;27;45278;-61
2021/07/03 04:46:02;;;;;;;;;16.25;14.00;;;;;21.02;61.06;100494.59;5075795;28;45479;-61
2021/07/03 04:48:27;;;;;;;;;14.00;14.00;;;;;21.08;60.78;100494.06;5075810;28;52487;-60
2021/07/03 04:50:52;;;;;;;;;19.75;16.50;;;;;21.13;60.30;100497.19;5076176;28;45681;-61
2021/07/03 04:53:18;;;;;;;;;14.00;12.50;;;;;21.23;60.44;100499.09;5074787;28;45384;-59
2021/07/03 04:55:43;;;;;;;;;17.50;15.25;;;;;21.29;60.08;100504.75;5076252;28;46061;-61
2021/07/03 04:58:08;;;;;;;;;17.50;15.75;;;;;21.37;59.82;100509.44;5076289;27;45378;-61
2021/07/03 05:00:34;;;;;;;;;22.50;20.75;;;;;21.42;59.68;100499.19;5075976;28;47952;-63
2021/07/03 05:03:01;;;;;;;;;19.75;17.00;;;;;21.44;59.89;100507.91;5074729;28;48187;-60
2021/07/03 05:05:26;;;;;;;;;16.50;15.00;;;;;21.47;59.72;100493.41;5075851;28;47462;-60
2021/07/03 05:07:51;;;;;;;;;17.75;17.00;;;;;21.50;59.74;100503.84;5073739;28;63647;-62
2021/07/03 05:10:17;;;;;;;;;16.75;16.00;;;;;21.52;59.51;100491.16;5057626;28;45341;-62
2021/07/03 05:12:42;;;;;;;;;18.75;16.75;;;;;21.58;59.28;100495.97;5074908;28;45545;-59
2021/07/03 05:15:08;;;;;;;;;17.50;16.00;;;;;21.64;59.10;100491.97;5076167;27;46316;-62
2021/07/03 05:17:34;;;;;;;;;17.25;16.75;;;;;21.70;58.82;100487.88;5074493;28;45295;-61
2021/07/03 05:19:59;;;;;;;;;18.75;17.00;;;;;21.74;59.42;100487.47;5074507;28;45243;-61
2021/07/03 05:22:27;;;;;;;;;21.50;20.75;;;;;21.82;58.97;100480.59;5074024;28;54646;-62
2021/07/03 05:24:53;;;;;;;;;19.25;17.00;;;;;21.87;59.17;100486.38;5075432;28;45349;-60
2021/07/03 05:27:18;;;;;;;;;20.75;19.00;;;;;21.96;59.15;100484.72;5074240;28;45361;-61
2021/07/03 05:29:43;;;;;;;;;17.25;15.75;;;;;22.03;58.68;100477.81;5075772;28;45694;-60
2021/07/03 05:32:09;;;;;;;;;21.75;19.75;;;;;22.13;58.50;100477.81;5074155;28;56424;-61
2021/07/03 05:34:35;;;;;;;;;20.50;19.25;;;;;22.23;58.18;100472.47;5074205;28;46183;-61
2021/07/03 05:37:00;;;;;;;;;15.75;15.75;;;;;22.31;58.12;100476.16;5074400;28;45567;-59
2021/07/03 05:39:26;;;;;;;;;26.25;25.25;;;;;22.40;58.10;100463.72;5075618;28;45944;-61
2021/07/03 05:41:51;;;;;;;;;23.25;21.00;;;;;22.54;57.79;100469.66;5075558;28;45326;-60
2021/07/03 05:44:17;;;;;;;;;23.00;22.00;;;;;22.59;57.96;100470.94;5075378;28;46903;-60
2021/07/03 05:46:42;;;;;;;;;18.50;16.25;;;;;22.66;57.15;100473.88;5075465;28;45423;-60
2021/07/03 05:49:07;;;;;;;;;13.00;13.00;;;;;22.68;57.47;100471.91;5074210;28;46806;-61
2021/07/03 05:51:33;;;;;;;;;16.00;14.25;;;;;22.75;57.29;100480.22;5075707;28;45440;-62
2021/07/03 05:53:58;;;;;;;;;16.75;15.25;;;;;22.81;57.22;100481.50;5077258;28;64808;-61
2021/07/03 05:56:26;;;;;;;;;20.00;18.00;;;;;22.90;57.10;100483.31;5078992;27;45293;-61
2021/07/03 05:58:51;;;;;;;;;17.50;16.75;;;;;23.07;56.24;100478.19;5077592;28;45398;-62
2021/07/03 06:01:17;;;;;;;;;19.75;17.75;;;;;23.28;56.58;100488.72;5078642;28;45270;-61
2021/07/03 06:03:42;;;;;;;;;19.75;16.00;;;;;23.54;56.37;100483.53;5094552;27;52662;-59
2021/07/03 06:06:08;;;;;;;;;18.00;18.00;;;;;23.79;55.91;100478.44;5077409;28;45283;-60
2021/07/03 06:08:33;;;;;;;;;18.75;16.00;;;;;24.06;54.91;100476.75;5078715;28;45254;-60
2021/07/03 06:10:58;;;;;;;;;18.00;16.00;;;;;24.32;54.28;100484.03;5077738;28;45634;-59
2021/07/03 06:13:24;;;;;;;;;17.50;17.00;;;;;24.50;53.86;100492.94;5078522;28;46120;-61
2021/07/03 06:15:49;;;;;;;;;18.25;15.50;;;;;24.64;53.04;100499.63;5076403;28;68071;-61
2021/07/03 06:18:15;;;;;;;;;13.75;12.50;;;;;24.76;53.49;100507.47;5078941;27;45425;-62
2021/07/03 06:20:40;;;;;;;;;18.50;16.25;;;;;24.85;52.59;100503.84;5078142;28;56174;-62
2021/07/03 06:23:06;;;;;;;;;20.00;17.75;;;;;24.84;52.79;100499.44;5077437;27;69594;-61
2021/07/03 06:25:32;;;;;;;;;16.25;16.00;;;;;24.89;52.21;100504.34;5078327;27;45368;-61
2021/07/03 06:27:58;;;;;;;;;15.75;15.75;;;;;24.96;52.55;100509.94;5078239;28;45456;-64
2021/07/03 06:30:23;;;;;;;;;20.25;20.25;;;;;25.05;52.02;100503.63;5078873;28;45341;-61
2021/07/03 06:32:49;;;;;;;;;24.50;19.50;;;;;25.11;51.98;100505.66;5077097;28;45933;-61
2021/07/03 06:35:14;;;;;;;;;18.75;16.50;;;;;25.18;51.39;100503.19;5078700;28;45347;-62
2021/07/03 06:37:39;;;;;;;;;21.50;20.00;;;;;25.20;51.18;100496.63;5078301;27;45368;-62
2021/07/03 06:40:05;;;;;;;;;20.75;19.25;;;;;25.23;51.57;100495.50;5078631;28;45653;-62
2021/07/03 06:42:31;;;;;;;;;22.00;18.00;;;;;25.30;51.13;100491.16;5076679;27;45378;-59
2021/07/03 06:44:56;;;;;;;;;19.50;17.75;;;;;25.44;51.18;100495.06;5077980;28;45606;-62
2021/07/03 06:47:22;;;;;;;;;17.25;17.25;;;;;25.55;50.48;100504.75;5077895;28;47194;-62
2021/07/03 06:49:47;;;;;;;;;17.75;16.25;;;;;25.56;50.38;100501.06;5077435;28;45267;-61
2021/07/03 06:52:13;;;;;;;;;19.50;16.50;;;;;25.61;50.33;100497.88;5077905;28;46679;-61
2021/07/03 06:54:39;;;;;;;;;16.50;16.50;;;;;25.64;50.23;100503.78;5076468;28;45311;-61
2021/07/03 06:57:04;;;;;;;;;18.50;14.75;;;;;25.76;50.29;100514.25;5077758;28;45436;-62
2021/07/03 06:59:30;;;;;;;;;16.50;15.50;;;;;25.85;49.46;100504.38;5078078;28;45440;-61
2021/07/03 07:01:55;;;;;;;;;18.25;16.25;;;;;25.93;49.74;100512.47;5077512;28;45453;-62
2021/07/03 07:04:21;;;;;;;;;16.25;12.75;;;;;26.09;48.43;100512.50;5076789;28;45460;-60
2021/07/03 07:06:50;;;;;;;;;14.75;12.25;;;;;26.33;48.33;100513.56;5077997;28;45548;-62
2021/07/03 07:09:16;;;;;;;;;17.50;15.50;;;;;26.56;47.57;100515.63;5076845;28;45205;-62
2021/07/03 07:11:41;;;;;;;;;14.75;14.75;;;;;26.80;47.42;100513.94;5077156;28;56958;-62
2021/07/03 07:14:06;;;;;;;;;12.25;11.75;;;;;26.99;46.80;100518.13;5076549;28;45367;-61
2021/07/03 07:16:33;;;;;;;;;11.25;11.25;;;;;27.17;46.47;100512.53;5077449;28;52544;-61
2021/07/03 07:18:58;;;;;;;;;15.75;13.75;;;;;27.32;45.91;100519.91;5077867;28;45308;-60
2021/07/03 07:21:24;;;;;;;;;18.50;16.00;;;;;27.40;45.36;100523.44;5076644;28;64703;-62
2021/07/03 07:23:49;;;;;;;;;17.25;13.00;;;;;27.49;44.92;100524.28;5077526;28;45456;-63
2021/07/03 07:26:14;;;;;;;;;13.75;13.25;;;;;27.49;44.64;100524.28;5077996;27;45342;-62
2021/07/03 07:28:40;;;;;;;;;17.00;15.75;;;;;27.52;44.63;100526.63;5076033;28;48183;-61
2021/07/03 07:31:05;;;;;;;;;14.75;13.00;;;;;27.56;44.30;100536.06;5077266;28;46184;-61
2021/07/03 07:33:31;;;;;;;;;13.25;12.25;;;;;27.56;44.54;100535.25;5075989;28;45314;-61
2021/07/03 07:35:56;;;;;;;;;12.50;11.00;;;;;27.55;44.65;100544.34;5076687;28;63945;-59
2021/07/03 07:38:24;;;;;;;;;13.50;12.00;;;;;27.63;44.05;100548.91;5077598;28;45429;-61
2021/07/03 07:40:49;;;;;;;;;14.25;12.50;;;;;27.74;44.03;100543.13;5077387;27;46086;-60
2021/07/03 07:43:16;;;;;;;;;12.00;11.75;;;;;27.84;43.42;100551.84;5077010;28;45325;-61
2021/07/03 07:45:42;;;;;;;;;13.25;12.00;;;;;27.87;43.68;100544.41;5077233;28;45326;-61
2021/07/03 07:48:07;;;;;;;;;11.75;11.00;;;;;27.90;43.19;100557.56;5077401;27;45598;-61
2021/07/03 07:50:33;;;;;;;;;14.50;13.75;;;;;27.92;42.95;100558.22;5077031;28;45686;-62
2021/07/03 07:52:58;;;;;;;;;19.00;16.75;;;;;27.97;43.12;100553.13;5076792;28;45361;-60
2021/07/03 07:55:24;;;;;;;;;11.75;11.50;;;;;27.96;43.59;100551.44;5076248;28;56146;-62
2021/07/03 07:57:49;;;;;;;;;14.75;13.25;;;;;27.86;43.80;100567.88;5076634;28;48754;-62
2021/07/03 08:00:17;;;;;;;;;14.75;13.75;;;;;27.87;43.83;100563.31;5076022;28;59111;-60
2021/07/03 08:02:42;;;;;;;;;15.75;15.00;;;;;27.85;43.56;100561.63;5075397;27;45369;-60
2021/07/03 08:05:09;;;;;;;;;13.25;12.00;;;;;27.72;44.09;100555.97;5076696;28;45337;-60
2021/07/03 08:07:34;;;;;;;;;13.50;12.75;;;;;27.66;43.96;100548.56;5075425;28;45620;-60
2021/07/03 08:09:59;;;;;;;;;12.00;12.00;;;;;27.65;43.63;100546.88;5076097;28;52141;-60
2021/07/03 08:12:25;;;;;;;;;14.00;12.50;;;;;27.60;43.57;100546.56;5074481;28;56518;-62
2021/07/03 08:14:50;;;;;;;;;14.00;12.00;;;;;27.45;43.56;100547.22;5076920;28;45318;-60
2021/07/03 08:17:16;;;;;;;;;13.25;12.25;;;;;27.32;43.30;100538.81;5075256;28;45659;-61
2021/07/03 08:19:41;;;;;;;;;17.25;15.25;;;;;27.20;43.51;100550.00;5075618;28;59703;-64
2021/07/03 08:22:06;;;;;;;;;11.25;11.25;;;;;27.01;43.60;100548.50;5076169;28;45352;-60
2021/07/03 08:24:32;;;;;;;;;12.50;10.50;;;;;26.79;43.84;100552.72;5075174;28;49261;-61
2021/07/03 08:26:57;;;;;;;;;11.50;11.00;;;;;26.58;44.47;100554.06;5076544;28;45336;-61
2021/07/03 08:29:23;;;;;;;;;13.50;11.25;;;;;26.41;44.79;100550.50;5074982;28;47282;-60
2021/07/03 08:31:48;;;;;;;;;10.50;10.00;;;;;26.29;44.68;100549.97;5076659;28;45284;-61
2021/07/03 08:34:13;;;;;;;;;16.25;15.50;;;;;26.21;45.04;100547.25;5076576;28;45265;-60
2021/07/03 08:36:39;;;;;;;;;11.75;9.75;;;;;26.17;45.28;100551.28;5076215;28;45600;-63
2021/07/03 08:39:04;;;;;;;;;13.50;12.25;;;;;26.11;45.33;100548.22;5075437;28;62774;-62
2021/07/03 08:41:31;;;;;;;;;17.00;12.00;;;;;26.02;45.48;100549.19;5075523;28;56288;-62
2021/07/03 08:43:57;;;;;;;;;15.50;13.25;;;;;25.92;45.92;100548.50;5075035;28;45304;-61
2021/07/03 08:46:22;;;;;;;;;17.00;14.75;;;;;25.79;45.83;100552.50;5074989;28;45271;-62
2021/07/03 08:48:51;;;;;;;;;14.50;13.25;;;;;25.66;46.15;100557.50;5075631;27;48852;-64
2021/07/03 08:51:17;;;;;;;;;15.75;14.50;;;;;25.56;46.64;100556.78;5076123;28;45349;-62
2021/07/03 08:53:43;;;;;;;;;14.25;13.00;;;;;25.49;47.06;100559.25;5074624;28;45284;-63
2021/07/03 08:56:08;;;;;;;;;14.75;13.00;;;;;25.43;47.24;100560.69;5075847;28;45375;-61
2021/07/03 08:58:34;;;;;;;;;14.25;14.00;;;;;25.34;47.77;100565.22;5074208;28;45348;-62
2021/07/03 09:01:02;;;;;;;;;16.00;14.25;;;;;25.26;47.77;100577.75;5075516;27;45402;-63
2021/07/03 09:03:27;;;;;;;;;13.75;13.00;;;;;25.07;48.74;100574.28;5075769;28;45384;-63
2021/07/03 09:05:54;;;;;;;;;11.00;11.00;;;;;24.96;49.32;100574.53;5075637;28;53362;-62
2021/07/03 09:08:21;;;;;;;;;14.25;12.75;;;;;24.83;50.94;100570.41;5075987;28;46292;-61
2021/07/03 09:10:47;;;;;;;;;14.75;11.75;;;;;24.80;50.54;100570.69;5075642;27;45359;-63
2021/07/03 09:13:12;;;;;;;;;13.75;13.25;;;;;24.87;68.23;100571.78;5108382;27;45346;-65
2021/07/03 09:15:39;;;;;;;;;20.50;19.00;;;;;24.74;68.00;100560.56;5075923;28;45445;-63
2021/07/03 09:18:07;;;;;;;;;22.00;19.25;;;;;24.82;63.84;100566.00;5075523;28;45361;-61
2021/07/03 09:20:39;;;;;;;;;16.75;14.00;;;;;25.04;59.53;100564.69;5075309;27;45362;-62
2021/07/03 09:23:16;;;;;;;;;15.50;14.00;;;;;25.34;54.15;100556.28;5075716;28;45353;-63
2021/07/03 09:25:52;;;;;;;;;16.00;14.25;;;;;25.72;52.64;100562.25;5075640;27;45287;-61
2021/07/03 09:28:18;;;;;;;;;13.25;11.75;;;;;26.06;51.14;100565.91;5076750;28;45486;-65
2021/07/03 09:30:46;;;;;;;;;21.50;20.25;;;;;26.23;50.33;100570.34;5078779;27;45342;-61
2021/07/03 09:33:16;;;;;;;;;14.75;12.75;;;;;26.28;49.55;100569.03;5079192;28;45331;-61
2021/07/03 09:35:42;;;;;;;;;14.75;14.50;;;;;26.24;49.29;100573.88;5078954;27;45327;-61
2021/07/03 09:38:08;;;;;;;;;17.50;15.00;;;;;26.22;49.84;100570.50;5077207;28;48565;-61
2021/07/03 09:40:35;;;;;;;;;21.00;16.75;;;;;26.21;49.07;100574.22;5078794;27;45432;-63
2021/07/03 09:43:05;;;;;;;;;19.25;17.75;;;;;26.16;48.84;100580.13;5077606;28;45800;-63
2021/07/03 09:45:31;;;;;;;;;17.75;17.25;;;;;26.17;49.25;100576.41;5078908;27;45560;-63
2021/07/03 09:48:10;;;;;;;;;17.00;14.00;;;;;26.24;48.82;100584.66;5077746;28;46525;-62
2021/07/03 09:50:38;;;;;;;;;16.25;13.25;;;;;26.29;48.74;100587.72;5077429;28;45279;-62
2021/07/03 09:53:04;;;;;;;;;16.50;15.00;;;;;26.32;48.50;100589.25;5077318;28;45286;-63
2021/07/03 09:55:29;;;;;;;;;19.75;17.75;;;;;26.45;48.28;100586.91;5077285;28;45427;-62
2021/07/03 09:57:55;;;;;;;;;17.75;14.75;;;;;26.57;48.02;100586.59;5078600;28;46769;-63
2021/07/03 10:00:20;;;;;;;;;15.75;14.75;;;;;26.77;47.77;100595.22;5077096;28;45363;-62
2021/07/03 10:02:46;;;;;;;;;17.00;16.00;;;;;27.00;47.37;100591.88;5078253;28;45468;-65
2021/07/03 10:05:11;;;;;;;;;19.25;15.75;;;;;27.25;46.92;100595.38;5060336;28;45546;-64
2021/07/03 10:07:44;;;;;;;;;18.50;16.50;;;;;27.55;46.49;100595.69;5076347;28;60357;-62
2021/07/03 10:10:28;;;;;;;;;16.00;15.00;;;;;27.83;45.74;100601.50;5076970;28;45519;-63
2021/07/03 10:13:08;;;;;;;;;28.00;20.00;;;;;27.99;45.16;100591.63;5060252;28;45438;-62
2021/07/03 10:15:35;;;;;;;;;17.25;16.75;;;;;28.23;45.30;100595.25;5077305;28;45334;-62
2021/07/03 10:18:12;;;;;;;;;20.75;17.00;;;;;28.36;44.57;100592.81;5076578;28;48278;-63
2021/07/03 10:20:38;;;;;;;;;18.50;16.00;;;;;28.34;44.28;100581.31;5078037;27;45243;-63
2021/07/03 10:23:04;;;;;;;;;18.25;18.25;;;;;28.40;43.79;100586.03;5078300;28;45409;-63
2021/07/03 10:25:35;;;;;;;;;16.25;16.25;;;;;28.56;42.91;100579.66;5077243;28;45509;-62
2021/07/03 10:28:01;;;;;;;;;12.00;10.50;;;;;28.77;42.37;100578.19;5076697;28;45374;-63
2021/07/03 10:30:28;;;;;;;;;14.50;14.00;;;;;28.98;42.00;100577.50;5078040;27;45246;-62
2021/07/03 10:33:05;;;;;;;;;18.50;15.25;;;;;29.20;41.30;100588.44;5077869;27;45257;-60
2021/07/03 10:35:41;;;;;;;;;19.75;17.50;;;;;29.46;41.63;100583.66;5076692;28;45408;-62
2021/07/03 10:38:20;;;;;;;;;15.00;15.00;;;;;29.67;41.21;100585.59;5076239;28;46505;-63
2021/07/03 10:40:46;;;;;;;;;15.50;14.00;;;;;29.86;40.35;100582.34;5076092;28;45459;-62
2021/07/03 10:43:12;;;;;;;;;17.75;15.25;;;;;30.00;40.11;100579.81;5077598;27;45198;-60
2021/07/03 10:45:51;;;;;;;;;17.75;16.75;;;;;30.25;40.01;100590.31;5077834;28;45658;-62
2021/07/03 10:48:21;;;;;;;;;14.00;14.00;;;;;30.41;39.60;100587.34;5076303;28;46097;-62
2021/07/03 10:50:47;;;;;;;;;15.25;14.00;;;;;30.56;38.99;100586.44;5076739;28;45314;-62
2021/07/03 10:53:26;;;;;;;;;15.00;15.00;;;;;30.72;38.50;100583.50;5076781;28;45366;-60
2021/07/03 10:55:52;;;;;;;;;16.50;14.25;;;;;30.85;38.06;100587.38;5077722;27;45400;-60
2021/07/03 10:58:21;;;;;;;;;17.25;13.25;;;;;30.91;38.46;100583.88;5077433;27;45440;-62
2021/07/03 11:00:50;;;;;;;;;16.25;15.50;;;;;30.89;37.76;100584.06;5059318;28;45279;-62
2021/07/03 11:03:25;;;;;;;;;14.00;14.00;;;;;30.92;37.40;100582.00;5077263;28;45451;-63
2021/07/03 11:05:51;;;;;;;;;10.50;10.50;;;;;30.92;37.04;100572.00;5076271;28;45393;-59